sensor_id;sensor_type;location;lat;lon;timestamp;P1;durP1;ratioP1;P2;durP2;ratioP2
65037;SDS011;51605;47.040;15.294;2023-02-01T00:01:58;2.28;;;1.27;;
65037;SDS011;51605;47.040;15.294;2023-02-01T00:04:25;2.03;;;1.40;;
65037;SDS011;51605;47.040;15.294;2023-02-01T00:06:50;1.80;;;1.40;;
65037;SDS011;51605;47.040;15.294;2023-02-01T00:09:16;1.50;;;1.13;;
65037;SDS011;51605;47.040;15.294;2023-02-01T00:11:42;1.70;;;1.30;;
65037;SDS011;51605;47.040;15.294;2023-02-01T00:14:07;2.10;;;1.30;;
65037;SDS011;51605;47.040;15.294;2023-02-01T00:16:33;2.20;;;1.50;;
65037;SDS011;51605;47.040;15.294;2023-02-01T00:19:04;2.95;;;1.40;;
65037;SDS011;51605;47.040;15.294;2023-02-01T00:21:32;1.83;;;1.30;;
65037;SDS011;51605;47.040;15.294;2023-02-01T00:23:58;1.70;;;1.10;;
65037;SDS011;51605;47.040;15.294;2023-02-01T00:29:01;2.35;;;1.25;;
65037;SDS011;51605;47.040;15.294;2023-02-01T00:31:28;2.42;;;1.60;;
65037;SDS011;51605;47.040;15.294;2023-02-01T00:33:54;2.08;;;1.20;;
65037;SDS011;51605;47.040;15.294;2023-02-01T00:36:20;1.40;;;1.10;;
65037;SDS011;51605;47.040;15.294;2023-02-01T00:38:46;2.05;;;1.40;;
65037;SDS011;51605;47.040;15.294;2023-02-01T00:41:16;1.52;;;1.08;;
65037;SDS011;51605;47.040;15.294;2023-02-01T00:43:44;2.30;;;1.30;;
65037;SDS011;51605;47.040;15.294;2023-02-01T00:46:10;2.53;;;1.30;;
65037;SDS011;51605;47.040;15.294;2023-02-01T00:48:38;1.80;;;1.30;;
65037;SDS011;51605;47.040;15.294;2023-02-01T00:51:05;1.77;;;1.13;;
65037;SDS011;51605;47.040;15.294;2023-02-01T00:53:32;2.03;;;1.30;;
65037;SDS011;51605;47.040;15.294;2023-02-01T00:55:59;1.60;;;1.30;;
65037;SDS011;51605;47.040;15.294;2023-02-01T00:58:25;1.77;;;1.33;;
65037;SDS011;51605;47.040;15.294;2023-02-01T01:01:04;2.20;;;1.38;;
65037;SDS011;51605;47.040;15.294;2023-02-01T01:03:32;1.73;;;1.30;;
65037;SDS011;51605;47.040;15.294;2023-02-01T01:05:59;2.08;;;1.30;;
65037;SDS011;51605;47.040;15.294;2023-02-01T01:08:26;1.55;;;1.30;;
65037;SDS011;51605;47.040;15.294;2023-02-01T01:10:52;2.10;;;1.35;;
65037;SDS011;51605;47.040;15.294;2023-02-01T01:13:17;1.95;;;1.20;;
65037;SDS011;51605;47.040;15.294;2023-02-01T01:15:43;3.22;;;1.30;;
65037;SDS011;51605;47.040;15.294;2023-02-01T01:18:09;2.10;;;1.33;;
65037;SDS011;51605;47.040;15.294;2023-02-01T01:20:35;2.17;;;1.33;;
65037;SDS011;51605;47.040;15.294;2023-02-01T01:23:02;1.90;;;1.30;;
65037;SDS011;51605;47.040;15.294;2023-02-01T01:25:29;1.83;;;1.20;;
65037;SDS011;51605;47.040;15.294;2023-02-01T01:27:54;1.80;;;1.23;;
65037;SDS011;51605;47.040;15.294;2023-02-01T01:30:20;2.20;;;1.15;;
65037;SDS011;51605;47.040;15.294;2023-02-01T01:32:46;1.45;;;1.10;;
65037;SDS011;51605;47.040;15.294;2023-02-01T01:35:11;1.58;;;1.20;;
65037;SDS011;51605;47.040;15.294;2023-02-01T01:37:37;1.70;;;1.20;;
65037;SDS011;51605;47.040;15.294;2023-02-01T01:40:03;1.30;;;1.10;;
65037;SDS011;51605;47.040;15.294;2023-02-01T01:42:37;1.98;;;1.20;;
65037;SDS011;51605;47.040;15.294;2023-02-01T01:45:08;1.65;;;1.20;;
65037;SDS011;51605;47.040;15.294;2023-02-01T01:47:52;1.63;;;1.10;;
65037;SDS011;51605;47.040;15.294;2023-02-01T01:50:30;1.73;;;1.30;;
65037;SDS011;51605;47.040;15.294;2023-02-01T01:52:58;1.80;;;1.30;;
65037;SDS011;51605;47.040;15.294;2023-02-01T01:55:28;1.42;;;1.17;;
65037;SDS011;51605;47.040;15.294;2023-02-01T01:58:00;1.67;;;1.17;;
65037;SDS011;51605;47.040;15.294;2023-02-01T02:00:31;2.83;;;1.20;;
65037;SDS011;51605;47.040;15.294;2023-02-01T02:05:26;1.60;;;1.10;;
65037;SDS011;51605;47.040;15.294;2023-02-01T02:07:53;1.67;;;1.10;;
65037;SDS011;51605;47.040;15.294;2023-02-01T02:10:23;1.83;;;1.30;;
65037;SDS011;51605;47.040;15.294;2023-02-01T02:13:09;2.00;;;1.40;;
65037;SDS011;51605;47.040;15.294;2023-02-01T02:15:36;2.05;;;1.20;;
65037;SDS011;51605;47.040;15.294;2023-02-01T02:18:09;2.30;;;1.23;;
65037;SDS011;51605;47.040;15.294;2023-02-01T02:29:06;2.47;;;1.20;;
65037;SDS011;51605;47.040;15.294;2023-02-01T02:47:14;3.25;;;2.97;;
65037;SDS011;51605;47.040;15.294;2023-02-01T02:52:45;1.42;;;1.10;;
65037;SDS011;51605;47.040;15.294;2023-02-01T02:55:35;1.80;;;1.10;;
65037;SDS011;51605;47.040;15.294;2023-02-01T02:58:04;1.77;;;1.20;;
65037;SDS011;51605;47.040;15.294;2023-02-01T03:00:50;2.25;;;1.20;;
65037;SDS011;51605;47.040;15.294;2023-02-01T03:03:39;1.25;;;1.08;;
65037;SDS011;51605;47.040;15.294;2023-02-01T03:06:24;1.80;;;1.20;;
65037;SDS011;51605;47.040;15.294;2023-02-01T03:08:50;2.47;;;1.10;;
65037;SDS011;51605;47.040;15.294;2023-02-01T03:11:18;1.52;;;1.20;;
65037;SDS011;51605;47.040;15.294;2023-02-01T03:13:51;1.43;;;1.07;;
65037;SDS011;51605;47.040;15.294;2023-02-01T03:19:21;2.60;;;1.30;;
65037;SDS011;51605;47.040;15.294;2023-02-01T03:21:51;1.95;;;1.23;;
65037;SDS011;51605;47.040;15.294;2023-02-01T03:24:44;1.50;;;1.23;;
65037;SDS011;51605;47.040;15.294;2023-02-01T03:29:40;2.15;;;1.30;;
65037;SDS011;51605;47.040;15.294;2023-02-01T03:32:14;2.13;;;1.20;;
65037;SDS011;51605;47.040;15.294;2023-02-01T03:34:40;1.77;;;1.40;;
65037;SDS011;51605;47.040;15.294;2023-02-01T03:37:09;1.42;;;1.13;;
65037;SDS011;51605;47.040;15.294;2023-02-01T03:39:39;1.88;;;1.30;;
65037;SDS011;51605;47.040;15.294;2023-02-01T03:42:12;1.55;;;1.20;;
65037;SDS011;51605;47.040;15.294;2023-02-01T03:47:42;1.55;;;1.10;;
65037;SDS011;51605;47.040;15.294;2023-02-01T03:50:12;1.60;;;1.10;;
65037;SDS011;51605;47.040;15.294;2023-02-01T03:52:47;1.50;;;1.20;;
65037;SDS011;51605;47.040;15.294;2023-02-01T03:55:18;1.30;;;1.05;;
65037;SDS011;51605;47.040;15.294;2023-02-01T03:58:19;1.52;;;1.13;;
65037;SDS011;51605;47.040;15.294;2023-02-01T04:00:44;1.50;;;1.20;;
65037;SDS011;51605;47.040;15.294;2023-02-01T04:03:14;1.73;;;1.17;;
65037;SDS011;51605;47.040;15.294;2023-02-01T04:05:40;1.55;;;1.20;;
65037;SDS011;51605;47.040;15.294;2023-02-01T04:08:05;1.50;;;1.10;;
65037;SDS011;51605;47.040;15.294;2023-02-01T04:10:31;1.77;;;1.20;;
65037;SDS011;51605;47.040;15.294;2023-02-01T04:12:57;1.77;;;1.10;;
65037;SDS011;51605;47.040;15.294;2023-02-01T04:15:23;1.35;;;1.10;;
65037;SDS011;51605;47.040;15.294;2023-02-01T04:17:49;1.20;;;1.10;;
65037;SDS011;51605;47.040;15.294;2023-02-01T04:20:15;2.10;;;1.10;;
65037;SDS011;51605;47.040;15.294;2023-02-01T04:22:40;1.15;;;1.02;;
65037;SDS011;51605;47.040;15.294;2023-02-01T04:25:06;1.80;;;1.15;;
65037;SDS011;51605;47.040;15.294;2023-02-01T04:27:33;1.40;;;1.10;;
65037;SDS011;51605;47.040;15.294;2023-02-01T04:29:58;1.70;;;1.02;;
65037;SDS011;51605;47.040;15.294;2023-02-01T04:32:24;2.88;;;2.40;;
65037;SDS011;51605;47.040;15.294;2023-02-01T04:34:50;1.73;;;1.63;;
65037;SDS011;51605;47.040;15.294;2023-02-01T04:37:15;1.60;;;1.20;;
65037;SDS011;51605;47.040;15.294;2023-02-01T04:39:41;1.15;;;0.90;;
65037;SDS011;51605;47.040;15.294;2023-02-01T04:42:07;1.98;;;1.20;;
65037;SDS011;51605;47.040;15.294;2023-02-01T04:44:33;1.70;;;1.10;;
65037;SDS011;51605;47.040;15.294;2023-02-01T04:46:59;1.98;;;1.13;;
65037;SDS011;51605;47.040;15.294;2023-02-01T04:49:24;1.45;;;1.20;;
65037;SDS011;51605;47.040;15.294;2023-02-01T04:51:51;1.55;;;1.20;;
65037;SDS011;51605;47.040;15.294;2023-02-01T04:54:17;1.80;;;1.20;;
65037;SDS011;51605;47.040;15.294;2023-02-01T04:56:43;1.90;;;1.15;;
65037;SDS011;51605;47.040;15.294;2023-02-01T04:59:10;1.60;;;1.10;;
65037;SDS011;51605;47.040;15.294;2023-02-01T05:01:36;2.08;;;1.08;;
65037;SDS011;51605;47.040;15.294;2023-02-01T05:04:02;2.45;;;1.30;;
65037;SDS011;51605;47.040;15.294;2023-02-01T05:06:28;1.10;;;1.00;;
65037;SDS011;51605;47.040;15.294;2023-02-01T05:08:53;2.78;;;0.93;;
65037;SDS011;51605;47.040;15.294;2023-02-01T05:11:19;1.40;;;1.05;;
65037;SDS011;51605;47.040;15.294;2023-02-01T05:14:03;1.42;;;1.00;;
65037;SDS011;51605;47.040;15.294;2023-02-01T05:16:29;1.45;;;1.00;;
65037;SDS011;51605;47.040;15.294;2023-02-01T05:18:55;1.50;;;1.10;;
65037;SDS011;51605;47.040;15.294;2023-02-01T05:21:20;2.33;;;1.02;;
65037;SDS011;51605;47.040;15.294;2023-02-01T05:23:46;1.08;;;0.90;;
65037;SDS011;51605;47.040;15.294;2023-02-01T05:26:30;1.55;;;1.02;;
65037;SDS011;51605;47.040;15.294;2023-02-01T05:28:56;1.40;;;0.90;;
65037;SDS011;51605;47.040;15.294;2023-02-01T05:31:22;3.22;;;1.05;;
65037;SDS011;51605;47.040;15.294;2023-02-01T05:33:48;1.40;;;1.00;;
65037;SDS011;51605;47.040;15.294;2023-02-01T05:36:14;1.63;;;1.20;;
65037;SDS011;51605;47.040;15.294;2023-02-01T05:38:40;1.13;;;1.00;;
65037;SDS011;51605;47.040;15.294;2023-02-01T05:41:06;1.65;;;1.10;;
65037;SDS011;51605;47.040;15.294;2023-02-01T05:43:31;1.58;;;1.10;;
65037;SDS011;51605;47.040;15.294;2023-02-01T05:45:57;1.17;;;1.00;;
65037;SDS011;51605;47.040;15.294;2023-02-01T05:48:23;1.90;;;1.08;;
65037;SDS011;51605;47.040;15.294;2023-02-01T05:50:48;1.08;;;0.98;;
65037;SDS011;51605;47.040;15.294;2023-02-01T05:53:14;2.13;;;1.20;;
65037;SDS011;51605;47.040;15.294;2023-02-01T05:55:39;1.33;;;1.00;;
65037;SDS011;51605;47.040;15.294;2023-02-01T05:58:06;2.13;;;1.10;;
65037;SDS011;51605;47.040;15.294;2023-02-01T06:00:32;1.00;;;0.90;;
65037;SDS011;51605;47.040;15.294;2023-02-01T06:02:58;1.75;;;1.05;;
65037;SDS011;51605;47.040;15.294;2023-02-01T06:05:23;1.83;;;1.10;;
65037;SDS011;51605;47.040;15.294;2023-02-01T06:07:49;1.00;;;0.90;;
65037;SDS011;51605;47.040;15.294;2023-02-01T06:10:16;2.22;;;1.10;;
65037;SDS011;51605;47.040;15.294;2023-02-01T06:12:42;1.67;;;1.00;;
65037;SDS011;51605;47.040;15.294;2023-02-01T06:15:09;1.27;;;1.10;;
65037;SDS011;51605;47.040;15.294;2023-02-01T06:17:36;1.35;;;1.00;;
65037;SDS011;51605;47.040;15.294;2023-02-01T06:20:02;1.73;;;1.00;;
65037;SDS011;51605;47.040;15.294;2023-02-01T06:22:28;1.10;;;0.90;;
65037;SDS011;51605;47.040;15.294;2023-02-01T06:24:54;1.17;;;1.00;;
65037;SDS011;51605;47.040;15.294;2023-02-01T06:27:20;2.50;;;1.05;;
65037;SDS011;51605;47.040;15.294;2023-02-01T06:29:45;1.58;;;1.10;;
65037;SDS011;51605;47.040;15.294;2023-02-01T06:32:11;1.33;;;1.00;;
65037;SDS011;51605;47.040;15.294;2023-02-01T06:34:36;2.00;;;1.00;;
65037;SDS011;51605;47.040;15.294;2023-02-01T06:37:04;1.33;;;1.00;;
65037;SDS011;51605;47.040;15.294;2023-02-01T06:39:30;1.48;;;0.98;;
65037;SDS011;51605;47.040;15.294;2023-02-01T06:41:55;1.30;;;1.00;;
65037;SDS011;51605;47.040;15.294;2023-02-01T06:44:21;1.55;;;1.10;;
65037;SDS011;51605;47.040;15.294;2023-02-01T06:46:47;1.30;;;1.00;;
65037;SDS011;51605;47.040;15.294;2023-02-01T06:49:12;2.75;;;0.80;;
65037;SDS011;51605;47.040;15.294;2023-02-01T06:51:38;1.08;;;0.95;;
65037;SDS011;51605;47.040;15.294;2023-02-01T06:54:03;1.10;;;1.00;;
65037;SDS011;51605;47.040;15.294;2023-02-01T06:56:29;2.22;;;1.00;;
65037;SDS011;51605;47.040;15.294;2023-02-01T06:58:56;1.88;;;1.00;;
65037;SDS011;51605;47.040;15.294;2023-02-01T07:01:22;1.65;;;1.00;;
65037;SDS011;51605;47.040;15.294;2023-02-01T07:03:48;2.25;;;1.08;;
65037;SDS011;51605;47.040;15.294;2023-02-01T07:06:16;1.40;;;1.05;;
65037;SDS011;51605;47.040;15.294;2023-02-01T07:08:42;3.10;;;1.00;;
65037;SDS011;51605;47.040;15.294;2023-02-01T07:11:09;2.03;;;1.10;;
65037;SDS011;51605;47.040;15.294;2023-02-01T07:13:37;1.20;;;1.10;;
65037;SDS011;51605;47.040;15.294;2023-02-01T07:16:09;1.30;;;0.90;;
65037;SDS011;51605;47.040;15.294;2023-02-01T07:18:37;1.23;;;1.10;;
65037;SDS011;51605;47.040;15.294;2023-02-01T07:21:03;1.27;;;1.00;;
65037;SDS011;51605;47.040;15.294;2023-02-01T07:23:29;1.48;;;1.05;;
65037;SDS011;51605;47.040;15.294;2023-02-01T07:25:58;2.67;;;1.00;;
65037;SDS011;51605;47.040;15.294;2023-02-01T07:28:25;1.92;;;1.08;;
65037;SDS011;51605;47.040;15.294;2023-02-01T07:33:19;1.42;;;1.10;;
65037;SDS011;51605;47.040;15.294;2023-02-01T07:35:46;1.90;;;1.02;;
65037;SDS011;51605;47.040;15.294;2023-02-01T07:38:13;3.60;;;1.20;;
65037;SDS011;51605;47.040;15.294;2023-02-01T07:40:39;1.35;;;1.10;;
65037;SDS011;51605;47.040;15.294;2023-02-01T07:43:04;1.75;;;1.20;;
65037;SDS011;51605;47.040;15.294;2023-02-01T07:45:34;2.05;;;1.30;;
65037;SDS011;51605;47.040;15.294;2023-02-01T07:50:26;1.60;;;1.20;;
65037;SDS011;51605;47.040;15.294;2023-02-01T07:52:52;2.25;;;1.20;;
65037;SDS011;51605;47.040;15.294;2023-02-01T07:55:18;1.92;;;1.30;;
65037;SDS011;51605;47.040;15.294;2023-02-01T07:57:44;1.98;;;1.30;;
65037;SDS011;51605;47.040;15.294;2023-02-01T08:00:10;2.40;;;1.20;;
65037;SDS011;51605;47.040;15.294;2023-02-01T08:02:59;2.22;;;1.30;;
65037;SDS011;51605;47.040;15.294;2023-02-01T08:05:25;2.45;;;1.20;;
65037;SDS011;51605;47.040;15.294;2023-02-01T08:07:51;1.23;;;1.13;;
65037;SDS011;51605;47.040;15.294;2023-02-01T08:10:17;2.75;;;1.30;;
65037;SDS011;51605;47.040;15.294;2023-02-01T08:12:43;1.58;;;1.08;;
65037;SDS011;51605;47.040;15.294;2023-02-01T08:15:13;1.80;;;1.13;;
65037;SDS011;51605;47.040;15.294;2023-02-01T08:17:40;2.55;;;1.25;;
65037;SDS011;51605;47.040;15.294;2023-02-01T08:20:11;1.55;;;1.20;;
65037;SDS011;51605;47.040;15.294;2023-02-01T08:22:38;2.05;;;1.20;;
65037;SDS011;51605;47.040;15.294;2023-02-01T08:25:04;1.85;;;1.20;;
65037;SDS011;51605;47.040;15.294;2023-02-01T08:27:32;2.00;;;1.20;;
65037;SDS011;51605;47.040;15.294;2023-02-01T08:29:58;2.03;;;1.35;;
65037;SDS011;51605;47.040;15.294;2023-02-01T08:32:24;2.13;;;1.35;;
65037;SDS011;51605;47.040;15.294;2023-02-01T08:34:50;1.23;;;1.00;;
65037;SDS011;51605;47.040;15.294;2023-02-01T08:37:16;3.25;;;1.38;;
65037;SDS011;51605;47.040;15.294;2023-02-01T08:39:41;2.13;;;1.30;;
65037;SDS011;51605;47.040;15.294;2023-02-01T08:42:10;1.98;;;1.20;;
65037;SDS011;51605;47.040;15.294;2023-02-01T08:44:55;1.95;;;1.30;;
65037;SDS011;51605;47.040;15.294;2023-02-01T08:47:21;2.90;;;1.30;;
65037;SDS011;51605;47.040;15.294;2023-02-01T08:49:46;1.95;;;1.33;;
65037;SDS011;51605;47.040;15.294;2023-02-01T08:52:12;1.85;;;1.20;;
65037;SDS011;51605;47.040;15.294;2023-02-01T08:54:39;1.40;;;1.10;;
65037;SDS011;51605;47.040;15.294;2023-02-01T08:57:06;1.45;;;1.15;;
65037;SDS011;51605;47.040;15.294;2023-02-01T08:59:31;2.08;;;1.30;;
65037;SDS011;51605;47.040;15.294;2023-02-01T09:01:57;2.10;;;1.30;;
65037;SDS011;51605;47.040;15.294;2023-02-01T09:04:23;2.33;;;1.30;;
65037;SDS011;51605;47.040;15.294;2023-02-01T09:06:49;1.73;;;1.20;;
65037;SDS011;51605;47.040;15.294;2023-02-01T09:09:14;1.70;;;1.20;;
65037;SDS011;51605;47.040;15.294;2023-02-01T09:11:40;2.58;;;1.30;;
65037;SDS011;51605;47.040;15.294;2023-02-01T09:14:05;2.65;;;1.40;;
65037;SDS011;51605;47.040;15.294;2023-02-01T09:16:31;2.35;;;1.73;;
65037;SDS011;51605;47.040;15.294;2023-02-01T09:18:57;2.33;;;1.35;;
65037;SDS011;51605;47.040;15.294;2023-02-01T09:21:23;2.17;;;1.10;;
65037;SDS011;51605;47.040;15.294;2023-02-01T09:23:50;2.92;;;1.20;;
65037;SDS011;51605;47.040;15.294;2023-02-01T09:26:16;2.08;;;1.25;;
65037;SDS011;51605;47.040;15.294;2023-02-01T09:28:42;1.65;;;1.20;;
65037;SDS011;51605;47.040;15.294;2023-02-01T09:31:07;3.55;;;1.30;;
65037;SDS011;51605;47.040;15.294;2023-02-01T09:33:33;1.48;;;1.30;;
65037;SDS011;51605;47.040;15.294;2023-02-01T09:36:00;1.23;;;1.10;;
65037;SDS011;51605;47.040;15.294;2023-02-01T09:38:27;1.40;;;1.10;;
65037;SDS011;51605;47.040;15.294;2023-02-01T09:40:54;2.37;;;1.27;;
65037;SDS011;51605;47.040;15.294;2023-02-01T09:43:26;2.27;;;1.30;;
65037;SDS011;51605;47.040;15.294;2023-02-01T09:48:24;1.27;;;1.08;;
65037;SDS011;51605;47.040;15.294;2023-02-01T09:50:56;1.67;;;1.38;;
65037;SDS011;51605;47.040;15.294;2023-02-01T09:53:30;2.88;;;1.40;;
65037;SDS011;51605;47.040;15.294;2023-02-01T09:56:11;1.52;;;1.10;;
65037;SDS011;51605;47.040;15.294;2023-02-01T09:58:55;2.00;;;1.30;;
65037;SDS011;51605;47.040;15.294;2023-02-01T10:01:29;1.73;;;1.20;;
65037;SDS011;51605;47.040;15.294;2023-02-01T10:03:58;1.80;;;1.30;;
65037;SDS011;51605;47.040;15.294;2023-02-01T10:06:31;2.10;;;1.55;;
65037;SDS011;51605;47.040;15.294;2023-02-01T10:09:14;2.13;;;1.75;;
65037;SDS011;51605;47.040;15.294;2023-02-01T10:12:12;1.52;;;1.30;;
65037;SDS011;51605;47.040;15.294;2023-02-01T10:15:19;1.50;;;1.08;;
65037;SDS011;51605;47.040;15.294;2023-02-01T10:18:20;2.30;;;1.40;;
65037;SDS011;51605;47.040;15.294;2023-02-01T10:28:42;2.40;;;1.33;;
65037;SDS011;51605;47.040;15.294;2023-02-01T10:31:10;1.23;;;1.02;;
65037;SDS011;51605;47.040;15.294;2023-02-01T10:33:38;1.75;;;1.30;;
65037;SDS011;51605;47.040;15.294;2023-02-01T10:36:16;1.92;;;1.40;;
65037;SDS011;51605;47.040;15.294;2023-02-01T10:38:47;1.55;;;1.20;;
65037;SDS011;51605;47.040;15.294;2023-02-01T10:41:17;1.63;;;1.13;;
65037;SDS011;51605;47.040;15.294;2023-02-01T10:43:47;1.60;;;1.20;;
65037;SDS011;51605;47.040;15.294;2023-02-01T10:46:16;1.80;;;1.30;;
65037;SDS011;51605;47.040;15.294;2023-02-01T10:48:42;1.95;;;1.30;;
65037;SDS011;51605;47.040;15.294;2023-02-01T10:51:26;1.80;;;1.08;;
65037;SDS011;51605;47.040;15.294;2023-02-01T10:54:18;1.58;;;1.20;;
65037;SDS011;51605;47.040;15.294;2023-02-01T10:56:46;2.08;;;1.38;;
65037;SDS011;51605;47.040;15.294;2023-02-01T11:01:46;1.42;;;1.20;;
65037;SDS011;51605;47.040;15.294;2023-02-01T11:04:16;1.90;;;1.20;;
65037;SDS011;51605;47.040;15.294;2023-02-01T11:06:45;2.00;;;1.30;;
65037;SDS011;51605;47.040;15.294;2023-02-01T11:09:20;1.88;;;1.25;;
65037;SDS011;51605;47.040;15.294;2023-02-01T11:14:14;1.92;;;1.30;;
65037;SDS011;51605;47.040;15.294;2023-02-01T11:16:39;1.65;;;1.20;;
65037;SDS011;51605;47.040;15.294;2023-02-01T11:19:05;1.95;;;1.30;;
65037;SDS011;51605;47.040;15.294;2023-02-01T11:21:34;1.27;;;1.10;;
65037;SDS011;51605;47.040;15.294;2023-02-01T11:24:03;1.45;;;1.20;;
65037;SDS011;51605;47.040;15.294;2023-02-01T11:26:31;2.13;;;1.30;;
65037;SDS011;51605;47.040;15.294;2023-02-01T11:28:58;1.38;;;1.20;;
65037;SDS011;51605;47.040;15.294;2023-02-01T11:31:29;1.98;;;1.20;;
65037;SDS011;51605;47.040;15.294;2023-02-01T11:33:58;1.50;;;1.20;;
65037;SDS011;51605;47.040;15.294;2023-02-01T11:36:31;2.17;;;1.38;;
65037;SDS011;51605;47.040;15.294;2023-02-01T11:44:38;1.95;;;1.30;;
65037;SDS011;51605;47.040;15.294;2023-02-01T11:47:27;1.55;;;1.20;;
65037;SDS011;51605;47.040;15.294;2023-02-01T11:50:05;1.63;;;1.13;;
65037;SDS011;51605;47.040;15.294;2023-02-01T11:53:03;1.40;;;1.10;;
65037;SDS011;51605;47.040;15.294;2023-02-01T12:17:17;1.88;;;1.20;;
65037;SDS011;51605;47.040;15.294;2023-02-01T12:20:02;2.17;;;1.10;;
65037;SDS011;51605;47.040;15.294;2023-02-01T12:39:19;1.98;;;1.38;;
65037;SDS011;51605;47.040;15.294;2023-02-01T12:41:56;1.77;;;1.35;;
65037;SDS011;51605;47.040;15.294;2023-02-01T12:44:37;2.05;;;1.45;;
65037;SDS011;51605;47.040;15.294;2023-02-01T12:49:44;2.08;;;1.40;;
65037;SDS011;51605;47.040;15.294;2023-02-01T12:52:40;2.47;;;1.67;;
65037;SDS011;51605;47.040;15.294;2023-02-01T12:58:05;2.03;;;1.50;;
65037;SDS011;51605;47.040;15.294;2023-02-01T13:00:36;3.00;;;1.80;;
65037;SDS011;51605;47.040;15.294;2023-02-01T13:08:36;2.28;;;1.70;;
65037;SDS011;51605;47.040;15.294;2023-02-01T13:14:15;2.03;;;1.60;;
65037;SDS011;51605;47.040;15.294;2023-02-01T13:19:49;2.15;;;1.63;;
65037;SDS011;51605;47.040;15.294;2023-02-01T13:22:21;4.25;;;1.80;;
65037;SDS011;51605;47.040;15.294;2023-02-01T13:24:52;2.25;;;1.67;;
65037;SDS011;51605;47.040;15.294;2023-02-01T13:27:22;2.30;;;1.70;;
65037;SDS011;51605;47.040;15.294;2023-02-01T13:29:54;2.17;;;1.70;;
65037;SDS011;51605;47.040;15.294;2023-02-01T13:35:03;2.67;;;2.00;;
65037;SDS011;51605;47.040;15.294;2023-02-01T13:37:40;2.47;;;1.80;;
65037;SDS011;51605;47.040;15.294;2023-02-01T13:40:36;2.20;;;1.80;;
65037;SDS011;51605;47.040;15.294;2023-02-01T13:45:56;2.25;;;1.80;;
65037;SDS011;51605;47.040;15.294;2023-02-01T13:48:32;2.42;;;1.90;;
65037;SDS011;51605;47.040;15.294;2023-02-01T13:51:10;2.17;;;1.80;;
65037;SDS011;51605;47.040;15.294;2023-02-01T13:53:38;2.40;;;1.75;;
65037;SDS011;51605;47.040;15.294;2023-02-01T13:58:41;2.20;;;1.70;;
65037;SDS011;51605;47.040;15.294;2023-02-01T14:11:38;3.08;;;1.90;;
65037;SDS011;51605;47.040;15.294;2023-02-01T14:16:53;2.50;;;1.70;;
65037;SDS011;51605;47.040;15.294;2023-02-01T14:19:35;3.08;;;1.88;;
65037;SDS011;51605;47.040;15.294;2023-02-01T14:22:35;2.93;;;2.03;;
65037;SDS011;51605;47.040;15.294;2023-02-01T14:24:58;3.03;;;1.95;;
65037;SDS011;51605;47.040;15.294;2023-02-01T14:27:25;5.10;;;1.83;;
65037;SDS011;51605;47.040;15.294;2023-02-01T14:30:00;2.65;;;1.77;;
65037;SDS011;51605;47.040;15.294;2023-02-01T14:32:30;2.42;;;1.73;;
65037;SDS011;51605;47.040;15.294;2023-02-01T14:34:59;2.55;;;1.80;;
65037;SDS011;51605;47.040;15.294;2023-02-01T14:37:31;3.05;;;2.17;;
65037;SDS011;51605;47.040;15.294;2023-02-01T14:40:04;3.70;;;1.75;;
65037;SDS011;51605;47.040;15.294;2023-02-01T14:42:50;2.03;;;1.58;;
65037;SDS011;51605;47.040;15.294;2023-02-01T14:47:54;2.58;;;1.67;;
65037;SDS011;51605;47.040;15.294;2023-02-01T15:06:46;2.25;;;1.70;;
65037;SDS011;51605;47.040;15.294;2023-02-01T15:12:03;2.05;;;1.48;;
65037;SDS011;51605;47.040;15.294;2023-02-01T15:14:40;2.53;;;1.73;;
65037;SDS011;51605;47.040;15.294;2023-02-01T15:19:56;2.08;;;1.60;;
65037;SDS011;51605;47.040;15.294;2023-02-01T15:22:24;2.85;;;1.58;;
65037;SDS011;51605;47.040;15.294;2023-02-01T15:27:20;2.13;;;1.45;;
65037;SDS011;51605;47.040;15.294;2023-02-01T15:29:46;1.75;;;1.40;;
65037;SDS011;51605;47.040;15.294;2023-02-01T15:32:31;1.63;;;1.30;;
65037;SDS011;51605;47.040;15.294;2023-02-01T15:35:30;2.00;;;1.50;;
65037;SDS011;51605;47.040;15.294;2023-02-01T15:38:40;2.05;;;1.40;;
65037;SDS011;51605;47.040;15.294;2023-02-01T15:41:03;1.90;;;1.40;;
65037;SDS011;51605;47.040;15.294;2023-02-01T15:43:46;3.42;;;1.50;;
65037;SDS011;51605;47.040;15.294;2023-02-01T15:46:19;2.25;;;1.60;;
65037;SDS011;51605;47.040;15.294;2023-02-01T15:48:48;2.17;;;1.35;;
65037;SDS011;51605;47.040;15.294;2023-02-01T15:51:19;1.70;;;1.30;;
65037;SDS011;51605;47.040;15.294;2023-02-01T15:53:55;3.70;;;1.50;;
65037;SDS011;51605;47.040;15.294;2023-02-01T15:56:28;1.75;;;1.20;;
65037;SDS011;51605;47.040;15.294;2023-02-01T15:59:28;1.95;;;1.30;;
65037;SDS011;51605;47.040;15.294;2023-02-01T16:01:54;2.17;;;1.52;;
65037;SDS011;51605;47.040;15.294;2023-02-01T16:04:21;2.30;;;1.40;;
65037;SDS011;51605;47.040;15.294;2023-02-01T16:06:56;2.13;;;1.58;;
65037;SDS011;51605;47.040;15.294;2023-02-01T16:09:35;1.90;;;1.38;;
65037;SDS011;51605;47.040;15.294;2023-02-01T16:12:01;2.42;;;1.42;;
65037;SDS011;51605;47.040;15.294;2023-02-01T16:14:28;2.45;;;1.50;;
65037;SDS011;51605;47.040;15.294;2023-02-01T16:16:55;2.83;;;1.60;;
65037;SDS011;51605;47.040;15.294;2023-02-01T16:19:23;1.90;;;1.25;;
65037;SDS011;51605;47.040;15.294;2023-02-01T16:21:53;1.90;;;1.30;;
65037;SDS011;51605;47.040;15.294;2023-02-01T16:24:19;1.45;;;1.20;;
65037;SDS011;51605;47.040;15.294;2023-02-01T16:26:48;2.70;;;1.30;;
65037;SDS011;51605;47.040;15.294;2023-02-01T16:29:13;1.60;;;1.10;;
65037;SDS011;51605;47.040;15.294;2023-02-01T16:31:40;1.83;;;1.25;;
65037;SDS011;51605;47.040;15.294;2023-02-01T16:34:09;1.67;;;1.30;;
65037;SDS011;51605;47.040;15.294;2023-02-01T16:36:38;1.42;;;1.20;;
65037;SDS011;51605;47.040;15.294;2023-02-01T16:39:04;1.55;;;1.15;;
65037;SDS011;51605;47.040;15.294;2023-02-01T16:41:32;1.50;;;1.20;;
65037;SDS011;51605;47.040;15.294;2023-02-01T16:43:57;2.20;;;1.23;;
65037;SDS011;51605;47.040;15.294;2023-02-01T16:46:24;2.45;;;1.33;;
65037;SDS011;51605;47.040;15.294;2023-02-01T16:48:52;1.88;;;1.20;;
65037;SDS011;51605;47.040;15.294;2023-02-01T16:51:23;1.58;;;1.27;;
65037;SDS011;51605;47.040;15.294;2023-02-01T16:53:51;1.63;;;1.33;;
65037;SDS011;51605;47.040;15.294;2023-02-01T16:56:20;1.52;;;1.20;;
65037;SDS011;51605;47.040;15.294;2023-02-01T16:58:57;1.50;;;1.30;;
65037;SDS011;51605;47.040;15.294;2023-02-01T17:01:23;1.77;;;1.30;;
65037;SDS011;51605;47.040;15.294;2023-02-01T17:03:49;1.42;;;1.10;;
65037;SDS011;51605;47.040;15.294;2023-02-01T17:06:16;1.23;;;1.10;;
65037;SDS011;51605;47.040;15.294;2023-02-01T17:08:45;1.70;;;1.20;;
65037;SDS011;51605;47.040;15.294;2023-02-01T17:11:15;1.67;;;1.20;;
65037;SDS011;51605;47.040;15.294;2023-02-01T17:13:41;1.37;;;1.10;;
65037;SDS011;51605;47.040;15.294;2023-02-01T17:16:27;1.50;;;1.10;;
65037;SDS011;51605;47.040;15.294;2023-02-01T17:21:24;1.88;;;1.40;;
65037;SDS011;51605;47.040;15.294;2023-02-01T17:23:52;2.13;;;1.20;;
65037;SDS011;51605;47.040;15.294;2023-02-01T17:26:19;1.33;;;1.20;;
65037;SDS011;51605;47.040;15.294;2023-02-01T17:28:45;1.83;;;1.13;;
65037;SDS011;51605;47.040;15.294;2023-02-01T17:31:12;1.50;;;1.17;;
65037;SDS011;51605;47.040;15.294;2023-02-01T17:33:42;1.52;;;1.20;;
65037;SDS011;51605;47.040;15.294;2023-02-01T17:36:10;1.27;;;1.10;;
65037;SDS011;51605;47.040;15.294;2023-02-01T17:38:38;1.83;;;1.30;;
65037;SDS011;51605;47.040;15.294;2023-02-01T17:41:04;1.60;;;1.30;;
65037;SDS011;51605;47.040;15.294;2023-02-01T17:43:30;2.03;;;1.40;;